Time;durP1;ratioP1;P1;durP2;ratioP2;P2;SDS_P1;SDS_P2;PMS_P1;PMS_P2;Temp;Humidity;BMP_temperature;BMP_pressure;BME280_temperature;BME280_humidity;BME280_pressure;Samples;Min_cycle;Max_cycle;Signal;HPM_P1;HPM_P2
2021/11/20 00:01:06;;;;;;;9.43;6.90;;;9.20;99.90;;;;;;4961520;29;20062;-79
2021/11/20 00:04:12;;;;;;;10.07;6.88;;;9.10;99.90;;;;;;4974932;29;20032;-80
2021/11/20 00:06:46;;;;;;;9.52;6.57;;;8.90;99.90;;;;;;4978906;28;20015;-79
2021/11/20 00:09:14;;;;;;;11.55;8.45;;;9.00;99.90;;;;;;4946256;29;20047;-79
2021/11/20 00:11:42;;;;;;;11.82;7.60;;;8.90;99.90;;;;;;4963385;29;20027;-79
2021/11/20 00:14:36;;;;;;;10.70;7.28;;;8.90;99.90;;;;;;4962854;29;20031;-79
2021/11/20 00:17:09;;;;;;;7.32;5.88;;;8.90;99.90;;;;;;4973898;29;20036;-78
2021/11/20 00:20:31;;;;;;;8.18;6.28;;;8.90;99.90;;;;;;4959851;29;20039;-79
2021/11/20 00:23:02;;;;;;;11.45;7.70;;;9.10;99.90;;;;;;4961451;29;20027;-80
2021/11/20 00:25:54;;;;;;;10.40;7.50;;;9.00;99.90;;;;;;4950548;29;20035;-80
2021/11/20 00:31:28;;;;;;;9.38;6.65;;;9.10;99.90;;;;;;4979353;29;20086;-80
2021/11/20 00:34:11;;;;;;;10.52;6.90;;;9.20;99.90;;;;;;4965578;29;20108;-78
2021/11/20 00:36:40;;;;;;;10.20;6.68;;;9.30;99.90;;;;;;4959765;29;20027;-79
2021/11/20 00:39:10;;;;;;;9.25;6.68;;;9.30;99.90;;;;;;4942850;29;20043;-79
2021/11/20 00:41:45;;;;;;;12.43;7.80;;;9.30;99.90;;;;;;4977566;29;20027;-79
2021/11/20 00:44:20;;;;;;;11.23;6.60;;;9.30;99.90;;;;;;4974888;29;20031;-79
2021/11/20 00:47:29;;;;;;;11.30;7.60;;;9.30;99.90;;;;;;4979489;29;20058;-80
2021/11/20 00:49:57;;;;;;;10.55;6.93;;;9.20;99.90;;;;;;4963056;28;20074;-79
2021/11/20 00:53:04;;;;;;;7.90;5.35;;;9.20;99.90;;;;;;4979705;28;20019;-80
2021/11/20 00:56:35;;;;;;;7.93;5.80;;;9.20;99.90;;;;;;4975905;28;20018;-80
2021/11/20 00:59:38;;;;;;;7.20;5.15;;;9.10;99.90;;;;;;4963848;29;20110;-80
2021/11/20 01:03:05;;;;;;;9.50;4.93;;;9.00;99.90;;;;;;4976019;29;20023;-79
2021/11/20 01:05:58;;;;;;;6.30;4.70;;;8.90;99.90;;;;;;4976099;29;20090;-80
2021/11/20 01:09:00;;;;;;;6.75;5.28;;;8.80;99.90;;;;;;4952171;29;20055;-80
2021/11/20 01:11:54;;;;;;;7.25;4.93;;;8.70;99.90;;;;;;4965545;29;20039;-79
2021/11/20 01:14:34;;;;;;;6.25;5.40;;;8.70;99.90;;;;;;4956788;29;20189;-79
2021/11/20 01:17:07;;;;;;;9.32;5.57;;;8.70;99.90;;;;;;4976990;29;20036;-78
2021/11/20 01:19:59;;;;;;;8.93;5.68;;;8.70;99.90;;;;;;4959752;29;20027;-80
2021/11/20 01:22:29;;;;;;;6.47;4.88;;;8.70;99.90;;;;;;4957808;29;20050;-79
2021/11/20 01:25:42;;;;;;;5.72;4.70;;;8.70;99.90;;;;;;4974570;29;20027;-79
2021/11/20 01:28:18;;;;;;;6.38;5.00;;;8.70;99.90;;;;;;4973061;28;20062;-79
2021/11/20 01:30:54;;;;;;;7.03;5.47;;;8.80;99.90;;;;;;4941883;29;20037;-79
2021/11/20 01:33:50;;;;;;;6.38;4.72;;;8.80;99.90;;;;;;4975936;29;20337;-80
2021/11/20 01:36:29;;;;;;;7.22;5.35;;;8.80;99.90;;;;;;4952382;29;20027;-79
2021/11/20 01:39:13;;;;;;;6.78;4.95;;;8.80;99.90;;;;;;4974457;29;20011;-79
2021/11/20 01:42:21;;;;;;;9.48;5.50;;;8.80;99.90;;;;;;4971844;29;20019;-79
2021/11/20 01:45:14;;;;;;;7.57;5.38;;;8.90;99.90;;;;;;4912767;29;20069;-79
2021/11/20 01:48:26;;;;;;;7.60;5.60;;;8.80;99.90;;;;;;4917431;29;20040;-80
2021/11/20 01:51:08;;;;;;;7.75;5.30;;;8.80;99.90;;;;;;4903343;29;20036;-79
2021/11/20 01:54:07;;;;;;;7.60;4.80;;;8.70;99.90;;;;;;4946203;29;20095;-79
2021/11/20 01:57:04;;;;;;;;;;;8.60;99.90;;;;;;4972303;29;20051;-80
2021/11/20 02:00:34;;;;;;;9.50;5.68;;;8.50;99.90;;;;;;4980865;28;19894;-80
2021/11/20 02:03:53;;;;;;;10.00;6.35;;;8.30;99.90;;;;;;4847483;29;20114;-81
2021/11/20 02:07:10;;;;;;;8.50;5.22;;;8.20;99.90;;;;;;4874910;29;20017;-80
2021/11/20 02:10:31;;;;;;;9.75;6.60;;;8.00;99.90;;;;;;4832667;29;20042;-82
2021/11/20 02:13:34;;;;;;;12.38;6.78;;;8.00;99.90;;;;;;4847176;29;20026;-81
2021/11/20 02:16:38;;;;;;;11.07;7.85;;;7.90;99.90;;;;;;4828444;29;20038;-81
2021/11/20 02:19:22;;;;;;;20.48;10.93;;;8.00;99.90;;;;;;4869670;28;20047;-79
2021/11/20 02:22:46;;;;;;;8.38;6.63;;;8.00;99.90;;;;;;4970271;29;20027;-81
2021/11/20 02:25:24;;;;;;;11.25;7.22;;;8.00;99.90;;;;;;4946155;29;20058;-81
2021/11/20 02:28:37;;;;;;;9.55;7.30;;;8.00;99.90;;;;;;4940167;29;20023;-82
2021/11/20 02:31:48;;;;;;;9.63;7.18;;;7.90;99.90;;;;;;4974998;28;20102;-80
2021/11/20 02:34:36;;;;;;;8.95;7.20;;;7.80;99.90;;;;;;4971070;29;20063;-80
2021/11/20 02:37:25;;;;;;;12.75;7.50;;;7.70;99.90;;;;;;4978407;29;20075;-81
2021/11/20 02:39:55;;;;;;;8.40;6.15;;;7.60;99.90;;;;;;4976443;29;20071;-79
2021/11/20 02:42:24;;;;;;;11.55;7.40;;;7.50;99.90;;;;;;4960910;29;20035;-81
2021/11/20 02:45:03;;;;;;;9.77;6.65;;;7.40;99.90;;;;;;4976492;29;20099;-80
2021/11/20 02:47:50;;;;;;;8.75;6.05;;;7.40;99.90;;;;;;4966084;29;20069;-78
2021/11/20 02:50:30;;;;;;;11.25;7.95;;;7.30;99.90;;;;;;4959684;29;20007;-80
2021/11/20 02:53:03;;;;;;;21.63;12.80;;;7.20;99.90;;;;;;4959878;29;20042;-79
2021/11/20 02:55:55;;;;;;;13.30;8.05;;;7.00;99.90;;;;;;4945252;29;20054;-80
2021/11/20 02:58:27;;;;;;;7.80;6.15;;;7.10;99.90;;;;;;4961429;29;20043;-81
2021/11/20 03:01:17;;;;;;;7.57;5.47;;;7.10;99.90;;;;;;4960731;29;20027;-81
2021/11/20 03:03:47;;;;;;;7.60;5.40;;;7.20;99.90;;;;;;4971866;29;20028;-79
2021/11/20 03:06:19;;;;;;;9.55;5.75;;;7.20;99.90;;;;;;4970356;29;20024;-79
2021/11/20 03:08:48;;;;;;;6.40;5.20;;;7.40;99.90;;;;;;4959713;29;20122;-81
2021/11/20 03:11:37;;;;;;;6.15;4.25;;;7.40;99.90;;;;;;4929089;29;20111;-79
2021/11/20 03:14:31;;;;;;;4.30;3.47;;;7.40;99.90;;;;;;4977966;28;20023;-80
2021/11/20 03:17:13;;;;;;;6.15;4.95;;;7.70;99.90;;;;;;4967129;29;20027;-80
2021/11/20 03:20:25;;;;;;;5.68;3.80;;;7.90;99.90;;;;;;4980075;29;20033;-80
2021/11/20 03:23:23;;;;;;;6.05;4.10;;;8.00;99.90;;;;;;4902619;29;20029;-79
2021/11/20 03:25:52;;;;;;;7.35;4.00;;;8.10;99.90;;;;;;4886460;29;20033;-79
2021/11/20 03:28:39;;;;;;;9.30;4.97;;;8.10;99.90;;;;;;4959398;29;20015;-80
2021/11/20 03:31:16;;;;;;;8.45;4.47;;;8.20;99.90;;;;;;4962255;29;20078;-79
2021/11/20 03:33:52;;;;;;;7.25;3.85;;;8.30;99.90;;;;;;4961695;29;20035;-81
2021/11/20 03:36:20;;;;;;;5.75;3.30;;;8.30;99.90;;;;;;4963216;29;20019;-80
2021/11/20 03:38:54;;;;;;;4.43;2.70;;;8.30;99.90;;;;;;4977695;29;20055;-78
2021/11/20 03:41:23;;;;;;;3.80;2.72;;;8.40;99.90;;;;;;4930392;29;20057;-79
2021/11/20 03:43:55;;;;;;;3.40;2.75;;;8.70;99.90;;;;;;4974018;28;20039;-79
2021/11/20 03:46:27;;;;;;;5.05;2.42;;;8.80;99.90;;;;;;4977278;29;20039;-80
2021/11/20 03:49:17;;;;;;;9.40;3.75;;;8.90;99.90;;;;;;4977817;29;20027;-79
2021/11/20 03:51:56;;;;;;;3.90;2.40;;;8.80;99.90;;;;;;4979874;29;20050;-79
2021/11/20 03:54:35;;;;;;;4.22;3.00;;;8.80;99.90;;;;;;4976215;28;20066;-79
2021/11/20 03:57:29;;;;;;;4.15;2.70;;;8.90;99.90;;;;;;4979522;29;20049;-80
2021/11/20 04:00:17;;;;;;;3.88;2.20;;;8.90;99.90;;;;;;4980563;29;20039;-80
2021/11/20 04:02:48;;;;;;;;;;;8.90;99.90;;;;;;4965278;29;20023;-80
2021/11/20 04:05:39;;;;;;;4.82;2.67;;;8.90;99.90;;;;;;4971959;29;19991;-79
2021/11/20 04:08:37;;;;;;;4.43;3.00;;;8.90;99.90;;;;;;4980230;29;20039;-80
2021/11/20 04:21:37;;;;;;;3.63;2.60;;;8.80;99.90;;;;;;5293768;23;20060;-79
2021/11/20 04:24:05;;;;;;;6.93;3.40;;;8.70;99.90;;;;;;4938380;29;20028;-79
2021/11/20 04:26:33;;;;;;;5.07;3.08;;;8.70;99.90;;;;;;4923461;29;20039;-77
2021/11/20 04:29:00;;;;;;;4.18;2.55;;;8.70;99.90;;;;;;4938903;29;20043;-80
2021/11/20 04:31:55;;;;;;;5.03;2.72;;;8.60;99.90;;;;;;4959301;29;20036;-78
2021/11/20 04:34:31;;;;;;;4.95;2.88;;;8.50;99.90;;;;;;4940450;29;20050;-78
2021/11/20 04:37:32;;;;;;;3.88;2.47;;;8.50;99.90;;;;;;4952625;29;20016;-81
2021/11/20 04:40:07;;;;;;;4.10;2.20;;;8.40;99.90;;;;;;4960104;29;20062;-80
2021/11/20 04:43:00;;;;;;;4.55;2.95;;;8.20;99.90;;;;;;4960039;29;20125;-80
2021/11/20 04:45:54;;;;;;;3.85;3.05;;;8.30;99.90;;;;;;4960130;28;20123;-80
2021/11/20 04:48:22;;;;;;;3.80;2.90;;;8.20;99.90;;;;;;4941794;29;20046;-79
2021/11/20 04:51:05;;;;;;;5.68;2.42;;;8.20;99.90;;;;;;4943288;29;20393;-80
2021/11/20 04:54:10;;;;;;;7.00;3.78;;;8.10;99.90;;;;;;4947436;29;20028;-81
2021/11/20 04:57:29;;;;;;;4.60;2.72;;;8.00;99.90;;;;;;4960800;28;20069;-80
2021/11/20 04:59:59;;;;;;;4.95;3.38;;;7.90;99.90;;;;;;4941119;29;20043;-80
2021/11/20 05:02:52;;;;;;;8.20;4.10;;;7.80;99.90;;;;;;4954013;29;20040;-80
2021/11/20 05:05:27;;;;;;;5.90;3.22;;;7.80;99.90;;;;;;4936230;29;20028;-79
2021/11/20 05:08:13;;;;;;;5.47;3.23;;;7.70;99.90;;;;;;4929191;28;20016;-79
2021/11/20 05:10:53;;;;;;;5.97;3.42;;;7.70;99.90;;;;;;4954920;29;20079;-80
2021/11/20 05:13:22;;;;;;;6.40;3.75;;;7.70;99.90;;;;;;4943680;29;20036;-81
2021/11/20 05:16:20;;;;;;;6.55;3.75;;;7.60;99.90;;;;;;4938298;29;20051;-80
2021/11/20 05:19:15;;;;;;;7.85;5.15;;;7.50;99.90;;;;;;4960292;29;20042;-80
2021/11/20 05:21:45;;;;;;;10.52;5.18;;;7.50;99.90;;;;;;4956605;28;20068;-80
2021/11/20 05:24:22;;;;;;;8.07;4.72;;;7.40;99.90;;;;;;4940538;29;20091;-80
2021/11/20 05:26:53;;;;;;;7.18;4.88;;;7.30;99.90;;;;;;4957470;29;20039;-79
2021/11/20 05:30:06;;;;;;;6.82;4.13;;;7.20;99.90;;;;;;4944776;29;20019;-81
2021/11/20 05:33:46;;;;;;;3.88;2.47;;;7.30;99.90;;;;;;4961014;29;20031;-82
2021/11/20 05:37:21;;;;;;;6.07;3.20;;;7.20;99.90;;;;;;4959413;29;20042;-82
2021/11/20 05:40:34;;;;;;;5.65;3.38;;;7.20;99.90;;;;;;4960737;29;20016;-82
2021/11/20 05:43:46;;;;;;;5.78;3.42;;;7.20;99.90;;;;;;4959793;29;20023;-81
2021/11/20 05:47:08;;;;;;;3.58;2.75;;;7.00;99.90;;;;;;4957242;29;20032;-81
2021/11/20 05:49:46;;;;;;;5.70;3.63;;;7.20;99.90;;;;;;4959640;29;20031;-80
2021/11/20 05:52:22;;;;;;;5.22;3.70;;;7.20;99.90;;;;;;4947929;29;20103;-80
2021/11/20 05:54:50;;;;;;;9.18;5.03;;;7.30;99.90;;;;;;4926728;29;20040;-80
2021/11/20 05:57:19;;;;;;;5.95;3.58;;;7.20;99.90;;;;;;4940131;29;20051;-79
2021/11/20 05:59:54;;;;;;;5.28;3.60;;;7.20;99.90;;;;;;4925858;29;20023;-80
2021/11/20 06:03:04;;;;;;;5.60;3.17;;;7.20;99.90;;;;;;4957829;29;20416;-80
2021/11/20 06:05:40;;;;;;;5.45;3.47;;;7.20;99.90;;;;;;4955235;29;20058;-80
2021/11/20 06:08:30;;;;;;;17.80;8.05;;;7.20;99.90;;;;;;4957478;28;20043;-79
2021/11/20 06:10:59;;;;;;;12.73;6.35;;;7.30;99.90;;;;;;4938558;29;20072;-79
2021/11/20 06:13:34;;;;;;;12.45;6.57;;;7.40;99.90;;;;;;4938530;29;20032;-80
2021/11/20 06:16:23;;;;;;;11.48;7.22;;;7.70;99.90;;;;;;4925216;29;20079;-79
2021/11/20 06:19:01;;;;;;;9.65;5.78;;;7.80;99.90;;;;;;4940858;29;20036;-80
2021/11/20 06:21:52;;;;;;;9.05;5.60;;;8.00;99.90;;;;;;4934795;29;20051;-79
2021/11/20 06:24:21;;;;;;;9.13;5.60;;;8.00;99.90;;;;;;4953935;29;20046;-80
2021/11/20 06:27:12;;;;;;;7.22;4.80;;;8.00;99.90;;;;;;4958084;29;20042;-80
2021/11/20 06:30:15;;;;;;;6.00;3.97;;;7.90;99.90;;;;;;4957054;29;20028;-78
2021/11/20 06:32:45;;;;;;;5.78;3.90;;;7.90;99.90;;;;;;4953159;29;20440;-79
2021/11/20 06:35:14;;;;;;;5.22;3.08;;;7.90;99.90;;;;;;4946915;29;20039;-79
2021/11/20 06:37:42;;;;;;;4.47;2.85;;;7.80;99.90;;;;;;4948244;29;20046;-78
2021/11/20 06:40:16;;;;;;;4.63;2.72;;;7.90;99.90;;;;;;4939266;29;20413;-78
2021/11/20 06:42:43;;;;;;;4.57;2.40;;;8.10;99.90;;;;;;4941750;29;20028;-78
2021/11/20 06:45:11;;;;;;;3.20;2.28;;;8.50;99.90;;;;;;4944194;29;20063;-79
2021/11/20 06:47:37;;;;;;;3.75;2.22;;;9.20;99.90;;;;;;4949772;29;20036;-78
2021/11/20 06:50:08;;;;;;;;;;;9.70;99.90;;;;;;4944113;29;20050;-79
2021/11/20 06:52:37;;;;;;;4.70;2.58;;;10.30;99.90;;;;;;4954453;29;19957;-79
2021/11/20 06:55:07;;;;;;;3.72;2.00;;;10.70;99.90;;;;;;4953516;29;20587;-80
2021/11/20 07:01:29;;;;;;;2.92;1.70;;;11.40;99.90;;;;;;4953217;29;20047;-80
2021/11/20 07:04:24;;;;;;;4.88;1.85;;;11.90;99.90;;;;;;4955420;29;20028;-79
2021/11/20 07:07:27;;;;;;;4.47;2.00;;;12.20;99.90;;;;;;4954591;29;20028;-80
2021/11/20 07:10:07;;;;;;;5.65;3.35;;;12.40;99.90;;;;;;4957247;29;20035;-80
2021/11/20 07:12:33;;;;;;;10.70;6.75;;;12.50;99.90;;;;;;4952555;29;20058;-79
2021/11/20 07:15:02;;;;;;;;;;;12.70;99.90;;;;;;4954080;29;20028;-79
2021/11/20 07:17:41;;;;;;;7.78;4.82;;;12.90;99.90;;;;;;4954290;29;19910;-79
2021/11/20 07:25:08;;;;;;;5.18;2.30;;;13.00;99.90;;;;;;4949080;28;20054;-79
2021/11/20 07:28:51;;;;;;;5.78;2.75;;;13.00;99.90;;;;;;4904152;29;20045;-80
2021/11/20 07:32:27;;;;;;;4.72;3.05;;;13.00;99.90;;;;;;4885411;29;20032;-79
2021/11/20 07:36:02;;;;;;;6.80;2.50;;;12.90;99.90;;;;;;4809294;29;20044;-78
2021/11/20 07:39:33;;;;;;;4.05;2.58;;;12.90;99.90;;;;;;4713052;30;20076;-79
2021/11/20 07:50:12;;;;;;;4.00;1.88;;;14.40;99.60;;;;;;4704013;30;20025;-78
2021/11/20 07:57:04;;;;;;;8.13;2.30;;;15.40;94.30;;;;;;4634443;30;20039;-79
2021/11/20 08:03:57;;;;;;;3.47;1.90;;;15.60;92.80;;;;;;4618612;30;20111;-86
2021/11/20 08:06:46;;;;;;;5.05;1.70;;;15.90;90.40;;;;;;4757514;30;20051;-86
2021/11/20 08:09:15;;;;;;;3.67;2.13;;;16.10;91.40;;;;;;4827059;29;20048;-87
2021/11/20 08:11:41;;;;;;;2.75;1.52;;;16.50;88.70;;;;;;4876418;29;20025;-88
2021/11/20 08:14:08;;;;;;;2.80;1.60;;;16.60;88.00;;;;;;4876122;29;20875;-88
2021/11/20 08:16:37;;;;;;;2.25;1.40;;;16.90;85.30;;;;;;4876234;29;20120;-88
2021/11/20 08:19:04;;;;;;;2.20;1.20;;;17.20;82.90;;;;;;4890044;29;20637;-87
2021/11/20 08:21:30;;;;;;;3.92;1.23;;;17.50;80.00;;;;;;4913421;29;20099;-87
2021/11/20 08:23:56;;;;;;;3.50;1.10;;;17.70;78.10;;;;;;4897788;29;20095;-86
2021/11/20 08:26:25;;;;;;;1.98;0.82;;;18.00;75.20;;;;;;4896892;29;20493;-87
2021/11/20 08:28:52;;;;;;;1.63;1.15;;;18.20;74.40;;;;;;4914087;29;20036;-89
2021/11/20 08:31:19;;;;;;;2.70;1.58;;;18.50;72.90;;;;;;4886496;29;20612;-85
2021/11/20 08:33:44;;;;;;;2.20;1.10;;;18.70;70.50;;;;;;4895631;29;20084;-83
2021/11/20 08:36:12;;;;;;;2.05;1.23;;;18.90;68.90;;;;;;4895908;29;20144;-85
2021/11/20 08:38:39;;;;;;;2.90;1.20;;;19.00;67.90;;;;;;4895520;29;20056;-84
2021/11/20 08:41:07;;;;;;;1.60;0.80;;;19.30;65.00;;;;;;4911510;29;20083;-82
2021/11/20 08:43:33;;;;;;;2.35;1.20;;;19.40;64.00;;;;;;4911161;29;20047;-84
2021/11/20 08:46:00;;;;;;;3.17;1.50;;;19.20;63.30;;;;;;4894081;29;20406;-85
2021/11/20 08:48:26;;;;;;;2.03;0.95;;;18.90;64.60;;;;;;4895501;29;20032;-83
2021/11/20 08:50:57;;;;;;;3.03;1.20;;;18.30;66.50;;;;;;4911248;29;20036;-85
2021/11/20 08:53:23;;;;;;;2.83;1.25;;;18.00;67.20;;;;;;4895137;29;20028;-85
2021/11/20 08:55:50;;;;;;;2.90;1.33;;;17.50;69.40;;;;;;4911262;29;20059;-87
2021/11/20 08:58:16;;;;;;;1.80;1.20;;;16.90;71.30;;;;;;4895755;29;20513;-89
2021/11/20 09:01:22;;;;;;;3.67;1.13;;;16.60;74.60;;;;;;4895420;29;20036;-90
2021/11/20 09:04:45;;;;;;;2.08;1.02;;;16.50;75.20;;;;;;4918300;29;20103;-83
2021/11/20 09:16:18;;;;;;;7.68;4.80;;;15.80;82.40;;;;;;5002813;23;20063;-78
2021/11/20 09:18:58;;;;;;;10.05;6.75;;;15.40;86.70;;;;;;4955824;29;20047;-78
2021/11/20 09:21:25;;;;;;;10.25;5.93;;;15.10;90.70;;;;;;4966454;29;20015;-77
2021/11/20 09:23:53;;;;;;;8.85;5.10;;;14.70;92.70;;;;;;4946397;29;20070;-78
2021/11/20 09:26:21;;;;;;;6.35;4.78;;;14.40;95.60;;;;;;4949311;29;20031;-78
2021/11/20 09:29:10;;;;;;;12.45;6.55;;;14.10;98.30;;;;;;4961654;29;20078;-78
2021/11/20 09:31:58;;;;;;;8.68;4.38;;;13.90;99.90;;;;;;4966083;28;20039;-80
2021/11/20 09:35:04;;;;;;;7.22;4.50;;;13.70;99.90;;;;;;4959902;28;20051;-79
2021/11/20 09:43:04;;;;;;;6.82;3.92;;;13.60;99.90;;;;;;5296007;23;20055;-78
2021/11/20 09:46:07;;;;;;;37.13;17.55;;;13.70;99.90;;;;;;4955942;29;20057;-78
2021/11/20 09:48:45;;;;;;;8.45;4.50;;;13.60;99.90;;;;;;4971201;28;20151;-78
2021/11/20 09:51:35;;;;;;;6.70;4.05;;;13.60;99.90;;;;;;4968342;29;20039;-78
2021/11/20 09:54:11;;;;;;;5.35;3.15;;;13.60;99.90;;;;;;4960229;29;20027;-79
2021/11/20 09:57:01;;;;;;;5.25;3.30;;;13.60;99.90;;;;;;4947937;29;20034;-78
2021/11/20 10:00:11;;;;;;;7.53;3.38;;;13.60;99.90;;;;;;4953533;29;20051;-79
2021/11/20 10:03:08;;;;;;;4.68;3.38;;;13.60;99.90;;;;;;4959429;29;20010;-79
2021/11/20 10:06:05;;;;;;;5.28;3.35;;;13.50;99.90;;;;;;4976512;29;20032;-77
2021/11/20 10:08:39;;;;;;;4.95;3.05;;;13.40;99.90;;;;;;4973509;29;20451;-78
2021/11/20 10:12:01;;;;;;;6.47;2.83;;;13.40;99.90;;;;;;4974066;29;20023;-78
2021/11/20 10:14:48;;;;;;;5.10;3.53;;;13.40;99.90;;;;;;4894533;29;20521;-78
2021/11/20 10:17:25;;;;;;;4.43;2.70;;;13.40;99.90;;;;;;4910937;29;20045;-77
2021/11/20 10:19:57;;;;;;;9.30;3.65;;;13.40;99.90;;;;;;4890436;29;20081;-78
2021/11/20 10:22:33;;;;;;;4.78;2.35;;;13.30;99.90;;;;;;4908026;29;20063;-78
2021/11/20 10:25:49;;;;;;;8.13;3.70;;;13.20;99.90;;;;;;4946494;29;20046;-77
2021/11/20 10:28:54;;;;;;;3.92;2.53;;;13.20;99.90;;;;;;4888880;29;20028;-78
2021/11/20 10:31:47;;;;;;;5.82;3.13;;;13.10;99.90;;;;;;4902141;29;20105;-78
2021/11/20 10:37:52;;;;;;;6.10;3.78;;;13.00;99.90;;;;;;4897333;29;20061;-78
2021/11/20 11:16:27;;;;;;;5.93;3.00;;;12.90;99.90;;;;;;5659449;23;20048;-80
2021/11/20 11:24:13;;;;;;;7.25;3.13;;;12.80;99.90;;;;;;5732455;23;20058;-78
2021/11/20 11:26:55;;;;;;;6.25;3.00;;;12.80;99.90;;;;;;4962544;29;20030;-78
2021/11/20 11:48:18;;;;;;;5.50;3.53;;;12.80;99.90;;;;;;5643847;23;20055;-78
2021/11/20 11:50:51;;;;;;;6.78;3.25;;;12.70;99.90;;;;;;4960328;28;20063;-76
2021/11/20 11:53:54;;;;;;;8.23;3.67;;;12.80;99.90;;;;;;4954358;29;20081;-79
2021/11/20 11:56:40;;;;;;;7.35;3.95;;;12.80;99.90;;;;;;4954327;29;20039;-78
2021/11/20 11:59:59;;;;;;;6.65;3.95;;;12.70;99.90;;;;;;4950819;29;20367;-78
2021/11/20 12:03:09;;;;;;;8.40;5.30;;;12.80;99.90;;;;;;4914676;29;20113;-79
2021/11/20 12:05:42;;;;;;;7.85;4.97;;;12.70;99.90;;;;;;4923373;29;20036;-78
2021/11/20 12:08:43;;;;;;;8.80;5.55;;;12.70;99.90;;;;;;4954479;29;20051;-78
2021/11/20 12:11:56;;;;;;;6.72;5.13;;;12.70;99.90;;;;;;4937102;29;20048;-78
2021/11/20 16:03:02;;;;;;;76.40;37.33;;;8.20;99.90;;;;;;4927518;27;20088;-81
2021/11/20 16:06:24;;;;;;;185.15;77.10;;;8.20;99.90;;;;;;4923831;29;20033;-81
2021/11/20 16:08:58;;;;;;;66.22;37.38;;;8.10;99.90;;;;;;4937765;29;20068;-80
2021/11/20 16:11:27;;;;;;;72.00;39.80;;;8.00;99.90;;;;;;4889580;29;20262;-81
2021/11/20 16:14:04;;;;;;;62.08;35.70;;;8.00;99.90;;;;;;4935385;29;20036;-80
2021/11/20 16:16:50;;;;;;;90.72;52.00;;;7.80;99.90;;;;;;4894441;29;20036;-82
2021/11/20 16:19:22;;;;;;;371.65;193.27;;;7.70;99.90;;;;;;4921668;29;20040;-81
2021/11/20 16:22:20;;;;;;;176.45;86.40;;;7.70;99.90;;;;;;4920396;29;20032;-80
2021/11/20 16:25:18;;;;;;;92.55;52.35;;;7.60;99.90;;;;;;4932800;29;20033;-83
2021/11/20 16:28:30;;;;;;;52.40;33.28;;;7.50;99.90;;;;;;4923359;29;20020;-82
2021/11/20 16:31:21;;;;;;;51.47;31.77;;;7.60;99.90;;;;;;4897862;29;20029;-82
2021/11/20 16:34:19;;;;;;;46.90;28.95;;;7.50;99.90;;;;;;4921217;29;20013;-84
2021/11/20 16:37:08;;;;;;;75.22;38.22;;;7.40;99.90;;;;;;4908477;29;20032;-80
2021/11/20 16:53:22;;;;;;;84.38;45.75;;;7.10;99.90;;;;;;4961003;29;20069;-82
2021/11/20 16:55:59;;;;;;;107.88;60.85;;;7.20;99.90;;;;;;4941837;29;20044;-81
2021/11/20 16:58:53;;;;;;;77.45;45.45;;;7.00;99.90;;;;;;4943653;29;20036;-80
2021/11/20 17:01:32;;;;;;;76.85;46.08;;;7.00;99.90;;;;;;4942166;29;20043;-81
2021/11/20 17:04:12;;;;;;;72.60;43.13;;;6.90;99.90;;;;;;4941475;29;20103;-81
2021/11/20 17:07:02;;;;;;;81.57;50.63;;;6.90;99.90;;;;;;4941785;29;20104;-80
2021/11/20 17:10:24;;;;;;;153.20;87.95;;;6.80;99.90;;;;;;4959776;29;20099;-79
2021/11/20 17:18:22;;;;;;;54.83;34.10;;;6.80;99.90;;;;;;4963622;23;20043;-82
2021/11/20 17:21:17;;;;;;;51.42;31.92;;;6.60;99.90;;;;;;4930512;29;20136;-82
2021/11/20 17:23:46;;;;;;;94.88;58.10;;;6.60;99.90;;;;;;4948447;29;20039;-79
2021/11/20 17:26:12;;;;;;;;;;;6.50;99.90;;;;;;4926354;29;20032;-79
2021/11/20 17:28:39;;;;;;;103.10;61.13;;;6.60;99.90;;;;;;4927856;29;19917;-76
2021/11/20 17:31:05;;;;;;;127.07;69.82;;;6.50;99.90;;;;;;4932263;29;20575;-78
2021/11/20 17:33:32;;;;;;;127.45;70.90;;;6.50;99.90;;;;;;4953360;29;20059;-79
2021/11/20 17:35:58;;;;;;;136.60;72.88;;;6.50;99.90;;;;;;4941324;29;20035;-77
2021/11/20 17:38:24;;;;;;;;;;;6.50;99.90;;;;;;4935188;29;20035;-78
2021/11/20 17:40:50;;;;;;;111.50;58.97;;;6.40;99.90;;;;;;4950509;29;19979;-82
2021/11/20 17:43:15;;;;;;;116.13;67.20;;;6.30;99.90;;;;;;4930527;29;20042;-79
2021/11/20 17:45:41;;;;;;;;;;;6.30;99.90;;;;;;4930986;29;20035;-78
2021/11/20 17:48:07;;;;;;;78.20;45.53;;;6.20;99.90;;;;;;4949258;29;19907;-77
2021/11/20 17:50:44;;;;;;;88.95;50.92;;;6.20;99.90;;;;;;4953127;29;20028;-79
2021/11/20 17:53:20;;;;;;;110.70;63.75;;;6.30;99.90;;;;;;4939234;29;20080;-80
2021/11/20 17:55:56;;;;;;;82.20;49.00;;;6.30;99.90;;;;;;4934972;29;20119;-79
2021/11/20 17:58:22;;;;;;;83.32;48.63;;;6.30;99.90;;;;;;4911234;29;20072;-79
2021/11/20 18:00:49;;;;;;;;;;;6.20;99.90;;;;;;4893339;29;20029;-77
2021/11/20 18:03:18;;;;;;;77.53;44.25;;;6.20;99.90;;;;;;4927598;29;19938;-80
2021/11/20 18:05:44;;;;;;;73.88;47.20;;;6.10;99.90;;;;;;4917068;29;20039;-77
2021/11/20 18:08:13;;;;;;;192.75;94.22;;;6.10;99.90;;;;;;4899692;29;20061;-79
2021/11/20 18:10:42;;;;;;;105.03;53.75;;;6.00;99.90;;;;;;4886373;29;20033;-80
2021/11/20 18:13:08;;;;;;;110.95;54.83;;;6.00;99.90;;;;;;4885760;29;20044;-78
2021/11/20 18:15:36;;;;;;;135.45;68.20;;;6.00;99.90;;;;;;4888311;29;20040;-78
2021/11/20 18:18:04;;;;;;;132.50;70.20;;;6.00;99.90;;;;;;4906737;29;20051;-79
2021/11/20 18:20:35;;;;;;;104.50;56.38;;;6.00;99.90;;;;;;4894728;29;20498;-79
2021/11/20 18:23:02;;;;;;;48.45;28.92;;;6.00;99.90;;;;;;4897587;29;20037;-79
2021/11/20 18:25:29;;;;;;;95.72;53.40;;;6.10;99.90;;;;;;4911919;29;20027;-79
2021/11/20 18:27:55;;;;;;;;;;;6.00;99.90;;;;;;4897651;29;20036;-80
2021/11/20 18:30:28;;;;;;;49.47;30.00;;;6.00;99.90;;;;;;4917646;29;19898;-79
2021/11/20 18:32:55;;;;;;;44.38;30.67;;;5.90;99.90;;;;;;4914113;29;20037;-78
2021/11/20 18:35:25;;;;;;;59.03;34.67;;;5.90;99.90;;;;;;4914196;29;20044;-79
2021/11/20 18:37:53;;;;;;;59.35;37.40;;;5.90;99.90;;;;;;4908178;29;20055;-78
2021/11/20 18:40:26;;;;;;;84.28;47.88;;;5.90;99.90;;;;;;4930046;29;20482;-78
2021/11/20 18:42:53;;;;;;;71.47;39.67;;;5.90;99.90;;;;;;4908344;29;20040;-79
2021/11/20 18:45:19;;;;;;;85.93;47.75;;;5.90;99.90;;;;;;4890014;29;20116;-80
2021/11/20 18:47:46;;;;;;;77.55;43.40;;;5.90;99.90;;;;;;4888107;29;20104;-78
2021/11/20 18:50:16;;;;;;;49.25;31.25;;;5.90;99.90;;;;;;4908527;29;20028;-81
2021/11/20 18:56:32;;;;;;;51.78;34.03;;;5.80;99.90;;;;;;5624895;23;20056;-81
2021/11/20 18:59:12;;;;;;;60.95;40.25;;;5.70;99.90;;;;;;4873991;29;20044;-80
2021/11/20 19:02:01;;;;;;;105.45;69.53;;;5.70;99.90;;;;;;4885655;29;20064;-80
2021/11/20 19:04:27;;;;;;;103.20;64.93;;;5.70;99.90;;;;;;4891076;29;20060;-79
2021/11/20 19:06:53;;;;;;;;;;;5.60;99.90;;;;;;4906880;29;20092;-79
2021/11/20 19:09:20;;;;;;;122.20;60.95;;;5.50;99.90;;;;;;4884313;29;19915;-79
2021/11/20 19:11:46;;;;;;;82.75;49.03;;;5.50;99.90;;;;;;4903324;29;20055;-79
2021/11/20 19:14:12;;;;;;;71.57;45.05;;;5.50;99.90;;;;;;4900458;29;20040;-79
2021/11/20 19:16:37;;;;;;;;;;;5.50;99.90;;;;;;4881705;29;20040;-78
2021/11/20 19:19:03;;;;;;;67.50;40.63;;;5.40;99.90;;;;;;4900039;29;20008;-77
2021/11/20 19:21:29;;;;;;;63.45;37.95;;;5.40;99.90;;;;;;4896068;29;20021;-79
2021/11/20 19:24:00;;;;;;;;;;;5.40;99.90;;;;;;4903160;29;20033;-79
2021/11/20 19:26:26;;;;;;;53.13;33.28;;;5.30;99.90;;;;;;4886269;29;19911;-81
2021/11/20 19:29:10;;;;;;;;;;;5.30;99.90;;;;;;4904408;29;20019;-81
2021/11/20 19:31:58;;;;;;;54.78;33.22;;;5.30;99.90;;;;;;4895659;29;19911;-80
2021/11/20 19:34:38;;;;;;;56.17;34.53;;;5.20;99.90;;;;;;4902856;29;20037;-80
2021/11/20 19:37:04;;;;;;;34.90;22.50;;;5.30;99.90;;;;;;4910994;29;20037;-79
2021/11/20 19:39:31;;;;;;;35.53;21.58;;;5.40;99.90;;;;;;4912080;29;20040;-80
2021/11/20 19:42:02;;;;;;;26.83;14.57;;;5.50;99.90;;;;;;4912299;29;20047;-80
2021/11/20 19:44:30;;;;;;;22.88;15.98;;;5.50;99.90;;;;;;4896370;29;20036;-80
2021/11/20 19:46:56;;;;;;;41.17;21.15;;;5.50;99.90;;;;;;4908919;29;20037;-79
2021/11/20 19:49:23;;;;;;;37.50;23.05;;;5.50;99.90;;;;;;4896342;29;20024;-79
2021/11/20 19:52:04;;;;;;;53.28;30.35;;;5.50;99.90;;;;;;4912331;29;20032;-80
2021/11/20 19:54:33;;;;;;;76.18;40.15;;;5.30;99.90;;;;;;4895781;29;20040;-79
2021/11/20 19:57:24;;;;;;;85.30;43.33;;;5.30;99.90;;;;;;4915103;29;20049;-80
2021/11/20 19:59:59;;;;;;;103.30;47.40;;;5.30;99.90;;;;;;4900347;29;20040;-80
2021/11/20 20:03:16;;;;;;;89.47;46.22;;;5.30;99.90;;;;;;4894188;29;20048;-79
2021/11/20 20:05:45;;;;;;;120.78;56.90;;;5.20;99.90;;;;;;4894429;29;20498;-79
2021/11/20 20:08:11;;;;;;;184.65;75.18;;;5.10;99.90;;;;;;4887690;29;20033;-79
2021/11/20 20:10:37;;;;;;;188.20;80.28;;;5.20;99.90;;;;;;4890172;29;20521;-80
2021/11/20 20:13:04;;;;;;;105.43;50.67;;;5.20;99.90;;;;;;4907185;29;20032;-78
2021/11/20 20:15:31;;;;;;;168.20;75.03;;;5.20;99.90;;;;;;4886268;29;20063;-78
2021/11/20 20:18:12;;;;;;;185.23;76.10;;;5.20;99.90;;;;;;4908801;29;20035;-79